首页
METAR-TAF:

METAR-TAF

机场 :

Floyd Bennett Memorial Airport

Glens Falls, 紐約州, 美国

纬度: 43-20-28N, 经度: 073-36-38W, 海拔: 100米

当前天气观测

该预报发布于53分钟前的14:53 UTC
静风
温度 -1°C
湿度 93%
气压 1017 hPa
能見度: 6.4公里
天空无云
轻雾

METAR: KGFL 151453Z AUTO 00000KT 4SM BR CLR M01/M02 A3003 RMK AO2 SLP177 I3000 T10111022 52008

时间: 10:46 (15:46 UTC)

预报

该预报发布于1小时和0分钟前的14:46 UTC
预报有效从15日的 15点(UTC)到 16日的 12点(UTC)
风速节,风向
能見度: 3.2公里
散云层高于25000英尺
轻雾
从 15日的 1600点(UTC)
风速3节,风向东转东北
能見度: 4.8公里
散云层高于25000英尺
轻雾
从 15日的 1800点(UTC)
风速5节,风向
能見度: 10公里
多云层高于25000英尺
从 16日的 0400点(UTC)
风速5节,风向北转东北
能見度: 10公里
多云层高于1500英尺
阴天层高于6000英尺
附近有阵雨
从 16日的 0700点(UTC)
风速9节,风向北转东北
能見度: 2.4公里
多云层高于800英尺
阴天层高于1200英尺
小雪, 轻雾
从 16日的 1000点(UTC)
风速12节,风向北转东北
能見度: 1.6公里
散云层高于800英尺
阴天层高于1500英尺
小雪, 雨, 轻雾

TAF: KGFL 151446Z 1515/1612 00000KT 2SM BR SCT250 FM151600 06003KT 3SM BR SCT250 FM151800 08005KT P6SM BKN250 FM160400 03005KT P6SM VCSH BKN015 OVC060 WS020/13035KT FM160700 02009KT 1 1/2SM -SN BR BKN008 OVC012 WS020/12035KT FM161000 02012KT 2SM -SNRA BR SCT008 OVC015 WS020/10040KT

超过4000个机场的气象观测和天气预报(METAR&TAF报告)。

可查询的气象台以黄色和红色小点在地图上表示。

将鼠标移到小点上方,可查看气象台名称。

然后点击查看天气观测和预报。

如需切换地图:点击带黑十字的绿色按钮放大地图;点击带横线的绿色按钮缩小地图;或者点击绿色箭头查看邻近地区的地图。


METAR-TAF: